createdAt,value
2022-12-01T00:02:51.152Z,55.51
2022-12-01T00:06:05.320Z,56.26
2022-12-01T00:09:28.284Z,56.52
2022-12-01T00:12:31.384Z,57.26
2022-12-01T00:15:36.229Z,56.46
2022-12-01T00:18:38.614Z,57.54
2022-12-01T00:21:41.214Z,57.30
2022-12-01T00:24:43.645Z,58.28
2022-12-01T00:27:50.173Z,57.93
2022-12-01T00:30:52.432Z,58.15
2022-12-01T00:33:55.063Z,58.07
2022-12-01T00:36:57.945Z,59.08
2022-12-01T00:40:00.537Z,58.56
2022-12-01T00:43:02.850Z,59.04
2022-12-01T00:46:05.492Z,58.67
2022-12-01T00:49:11.857Z,58.42
2022-12-01T00:52:15.497Z,58.71
2022-12-01T00:55:17.977Z,58.99
2022-12-01T00:58:20.405Z,59.95
2022-12-01T01:01:22.823Z,58.97
2022-12-01T01:04:25.266Z,59.47
2022-12-01T01:07:30.362Z,59.60
2022-12-01T01:10:32.639Z,59.03
2022-12-01T01:13:36.293Z,59.37
2022-12-01T01:16:38.948Z,58.21
2022-12-01T01:19:41.602Z,58.94
2022-12-01T01:22:44.195Z,59.33
2022-12-01T01:25:46.412Z,58.11
2022-12-01T01:28:49.532Z,59.35
2022-12-01T01:31:51.908Z,58.53
2022-12-01T01:34:54.294Z,58.99
2022-12-01T01:37:56.606Z,58.17
2022-12-01T01:40:59.113Z,57.87
2022-12-01T01:44:03.162Z,58.24
2022-12-01T01:47:05.836Z,57.90
2022-12-01T01:50:11.075Z,58.16
2022-12-01T01:53:13.900Z,58.29
2022-12-01T01:56:16.230Z,58.33
2022-12-01T01:59:24.945Z,57.83
2022-12-01T02:02:27.234Z,58.87
2022-12-01T02:05:33.160Z,58.19
2022-12-01T02:08:38.211Z,58.98
2022-12-01T02:11:49.505Z,58.79
2022-12-01T02:14:57.833Z,59.97
2022-12-01T02:18:15.272Z,59.92
2022-12-01T02:21:37.744Z,59.96
2022-12-01T02:25:10.603Z,59.89
2022-12-01T02:28:27.575Z,60.20
2022-12-01T02:32:06.336Z,59.82
2022-12-01T02:35:08.578Z,60.20
2022-12-01T02:38:29.166Z,60.69
2022-12-01T02:41:36.959Z,60.68
2022-12-01T02:44:42.226Z,60.96
2022-12-01T02:47:45.041Z,61.11
2022-12-01T02:50:47.727Z,60.11
2022-12-01T02:53:50.102Z,59.61
2022-12-01T02:56:53.625Z,59.97
2022-12-01T02:59:56.381Z,59.25
2022-12-01T03:03:26.882Z,59.19
2022-12-01T03:06:39.997Z,59.54
2022-12-01T03:09:51.548Z,59.12
2022-12-01T03:13:33.092Z,59.40
2022-12-01T03:16:52.745Z,60.48
2022-12-01T03:20:01.122Z,60.56
2022-12-01T03:23:10.266Z,60.13
2022-12-01T03:26:16.563Z,59.98
2022-12-01T03:29:23.053Z,59.86
2022-12-01T03:32:34.111Z,59.88
2022-12-01T03:36:15.277Z,60.18
2022-12-01T03:39:21.452Z,60.58
2022-12-01T03:42:27.426Z,60.51
2022-12-01T03:46:07.047Z,60.54
2022-12-01T03:49:09.887Z,61.71
2022-12-01T03:52:28.315Z,61.83
2022-12-01T03:55:32.417Z,61.61
2022-12-01T03:58:40.290Z,59.84
2022-12-01T04:01:42.583Z,60.44
2022-12-01T04:04:45.098Z,59.80
2022-12-01T04:07:47.377Z,60.09
2022-12-01T04:10:50.053Z,59.28
2022-12-01T04:13:52.398Z,59.67
2022-12-01T04:16:54.711Z,59.79
2022-12-01T04:19:57.012Z,58.89
2022-12-01T04:22:59.284Z,59.55
2022-12-01T04:26:03.497Z,59.27
2022-12-01T04:29:10.148Z,59.41
2022-12-01T04:32:13.667Z,59.32
2022-12-01T04:35:16.026Z,59.67
2022-12-01T04:38:18.300Z,59.51
2022-12-01T04:41:20.602Z,60.06
2022-12-01T04:44:22.879Z,60.05
2022-12-01T04:47:25.272Z,59.54
2022-12-01T04:50:27.856Z,59.36
2022-12-01T04:53:30.382Z,60.18
2022-12-01T04:56:33.803Z,60.35
2022-12-01T04:59:36.088Z,60.57
2022-12-01T05:02:38.723Z,61.78
2022-12-01T05:05:41.020Z,60.91
2022-12-01T05:08:43.446Z,60.38
2022-12-01T05:11:45.793Z,59.69
2022-12-01T05:14:48.249Z,59.91
2022-12-01T05:17:50.692Z,60.46
2022-12-01T05:20:59.052Z,60.07
2022-12-01T05:24:01.315Z,60.46
2022-12-01T05:27:03.580Z,60.25
2022-12-01T05:30:06.809Z,60.36
2022-12-01T05:33:09.068Z,61.08
2022-12-01T05:36:12.038Z,61.30
2022-12-01T05:39:14.418Z,61.82
2022-12-01T05:42:16.691Z,61.95
2022-12-01T05:45:19.333Z,61.49
2022-12-01T05:48:23.013Z,61.78
2022-12-01T05:51:25.274Z,62.32
2022-12-01T05:54:30.140Z,62.38
2022-12-01T05:57:33.596Z,62.01
2022-12-01T06:00:39.634Z,63.32
2022-12-01T06:03:46.201Z,62.01
2022-12-01T06:06:48.818Z,62.08
2022-12-01T06:09:54.474Z,62.04
2022-12-01T06:12:56.852Z,62.45
2022-12-01T06:16:00.604Z,63.14
2022-12-01T06:19:03.127Z,63.05
2022-12-01T06:22:05.516Z,63.88
2022-12-01T06:25:08.773Z,62.52
2022-12-01T06:28:11.074Z,62.20
2022-12-01T06:31:13.560Z,62.31
2022-12-01T06:34:16.011Z,62.06
2022-12-01T06:37:18.373Z,62.73
2022-12-01T06:40:21.197Z,62.31
2022-12-01T06:43:25.203Z,62.06
2022-12-01T06:46:27.624Z,62.44
2022-12-01T06:49:30.044Z,62.91
2022-12-01T06:52:32.336Z,62.48
2022-12-01T06:55:34.593Z,62.11
2022-12-01T06:58:36.895Z,62.46
2022-12-01T07:01:39.585Z,62.85
2022-12-01T07:04:42.090Z,62.68
2022-12-01T07:07:44.485Z,62.20
2022-12-01T07:10:46.708Z,61.26
2022-12-01T07:13:51.760Z,61.31
2022-12-01T07:16:54.363Z,61.02
2022-12-01T07:19:57.105Z,60.78
2022-12-01T07:22:59.462Z,60.11
2022-12-01T07:26:03.733Z,59.78
2022-12-01T07:29:06.335Z,59.35
2022-12-01T07:32:08.652Z,59.57
2022-12-01T07:35:13.076Z,60.34
2022-12-01T07:38:20.597Z,60.38
2022-12-01T07:41:24.558Z,59.93
2022-12-01T07:44:26.886Z,58.97
2022-12-01T07:47:29.172Z,59.89
2022-12-01T07:50:31.443Z,59.15
2022-12-01T07:53:33.875Z,57.90
2022-12-01T07:56:37.655Z,58.08
2022-12-01T07:59:39.957Z,57.89
2022-12-01T08:02:42.362Z,57.83
2022-12-01T08:05:44.698Z,57.30
2022-12-01T08:08:48.027Z,57.69
2022-12-01T08:11:50.315Z,56.73
2022-12-01T08:14:54.018Z,57.28
2022-12-01T08:17:56.270Z,56.67
2022-12-01T08:20:58.555Z,56.06
2022-12-01T08:24:00.889Z,55.32
2022-12-01T08:27:03.164Z,55.42
2022-12-01T08:30:06.415Z,55.37
2022-12-01T08:33:08.717Z,55.49
2022-12-01T08:36:11.276Z,55.02
2022-12-01T08:39:14.099Z,54.30
2022-12-01T08:42:16.435Z,52.98
2022-12-01T08:45:18.813Z,53.13
2022-12-01T08:48:21.260Z,53.39
2022-12-01T08:51:24.356Z,51.94
2022-12-01T08:54:26.704Z,52.24
2022-12-01T08:57:30.137Z,51.05
2022-12-01T09:00:32.414Z,50.41
2022-12-01T09:03:36.303Z,50.05
2022-12-01T09:06:41.946Z,50.91
2022-12-01T09:09:45.137Z,50.46
2022-12-01T09:12:47.426Z,50.29
2022-12-01T09:15:56.819Z,49.20
2022-12-01T09:18:59.223Z,49.16
2022-12-01T09:22:01.872Z,49.69
2022-12-01T09:25:04.486Z,47.27
2022-12-01T09:28:07.932Z,47.95
2022-12-01T09:31:12.215Z,47.78
2022-12-01T09:34:17.491Z,48.47
2022-12-01T09:37:19.767Z,48.17
2022-12-01T09:40:25.022Z,47.44
2022-12-01T09:43:38.489Z,46.26
2022-12-01T09:46:48.066Z,46.94
2022-12-01T09:49:56.443Z,46.05
2022-12-01T09:53:08.164Z,45.37
2022-12-01T09:56:22.661Z,46.61
2022-12-01T09:59:32.142Z,46.32
2022-12-01T10:02:41.312Z,46.79
2022-12-01T10:06:25.814Z,47.09
2022-12-01T10:09:21.610Z,45.66
2022-12-01T10:12:27.961Z,45.25
2022-12-01T10:15:52.018Z,45.58
2022-12-01T10:19:02.046Z,45.95
2022-12-01T10:22:39.864Z,45.56
2022-12-01T10:25:46.162Z,44.56
2022-12-01T10:29:03.521Z,44.77
2022-12-01T10:32:13.214Z,44.03
2022-12-01T10:35:16.935Z,44.75
2022-12-01T10:38:35.413Z,44.86
2022-12-01T10:41:38.198Z,44.46
2022-12-01T10:44:40.811Z,44.00
2022-12-01T10:48:16.879Z,43.93
2022-12-01T10:51:20.591Z,43.08
2022-12-01T10:54:28.750Z,42.29
2022-12-01T10:57:31.511Z,43.25
2022-12-01T11:04:07.941Z,39.99
2022-12-01T11:07:15.879Z,40.59
2022-12-01T11:10:19.585Z,40.81
2022-12-01T11:13:28.552Z,41.23
2022-12-01T11:16:38.722Z,40.30
2022-12-01T11:19:41.164Z,39.31
2022-12-01T11:22:43.635Z,39.14
2022-12-01T11:26:10.756Z,38.09
2022-12-01T11:29:32.037Z,38.87
2022-12-01T11:32:38.000Z,38.65
2022-12-01T11:35:47.297Z,39.98
2022-12-01T11:38:50.373Z,39.60
2022-12-01T11:41:58.268Z,39.47
2022-12-01T11:45:03.649Z,39.39
2022-12-01T11:48:07.277Z,39.36
2022-12-01T11:51:29.136Z,39.72
2022-12-01T11:54:31.447Z,40.06
2022-12-01T11:57:34.979Z,40.54
2022-12-01T12:00:48.053Z,40.52
2022-12-01T12:04:06.239Z,40.46
2022-12-01T12:07:27.032Z,42.08
2022-12-01T12:10:57.362Z,42.46
2022-12-01T12:14:14.385Z,42.49
2022-12-01T12:17:22.567Z,41.63
2022-12-01T12:20:49.163Z,42.54
2022-12-01T12:24:03.466Z,42.31
2022-12-01T12:27:15.305Z,42.82
2022-12-01T12:30:29.768Z,43.12
2022-12-01T12:33:34.959Z,43.45
2022-12-01T12:36:58.618Z,43.71
2022-12-01T12:40:15.993Z,43.54
2022-12-01T12:43:23.477Z,44.14
2022-12-01T12:46:33.466Z,43.93
2022-12-01T12:49:53.041Z,44.56
2022-12-01T12:52:59.864Z,44.56
2022-12-01T12:56:05.590Z,45.94
2022-12-01T12:59:11.822Z,45.26
2022-12-01T13:02:18.792Z,45.49
2022-12-01T13:05:21.056Z,45.64
2022-12-01T13:08:24.540Z,45.37
2022-12-01T13:11:33.552Z,46.76
2022-12-01T13:14:39.832Z,46.34
2022-12-01T13:17:45.266Z,46.99
2022-12-01T13:20:47.832Z,46.50
2022-12-01T13:23:51.367Z,46.64
2022-12-01T13:27:04.592Z,46.16
2022-12-01T13:30:18.308Z,46.42
2022-12-01T13:33:22.651Z,46.77
2022-12-01T13:39:47.591Z,47.28
2022-12-01T13:42:56.347Z,47.59
2022-12-01T13:46:02.414Z,47.12
2022-12-01T13:49:04.968Z,47.28
2022-12-01T13:52:22.393Z,48.30
2022-12-01T13:55:28.067Z,48.64
2022-12-01T13:58:33.311Z,48.97
2022-12-01T14:01:44.483Z,49.08
2022-12-01T14:04:47.284Z,49.50
2022-12-01T14:07:51.304Z,49.54
2022-12-01T14:11:05.694Z,49.96
2022-12-01T14:14:24.247Z,49.30
2022-12-01T14:17:33.615Z,50.77
2022-12-01T14:20:45.043Z,50.44
2022-12-01T14:24:02.235Z,50.89
2022-12-01T14:27:05.864Z,50.89
2022-12-01T14:30:39.440Z,51.26
2022-12-01T14:33:59.324Z,51.32
2022-12-01T14:37:19.740Z,52.59
2022-12-01T14:40:24.246Z,51.24
2022-12-01T14:43:45.613Z,51.61
2022-12-01T14:47:00.283Z,52.74
2022-12-01T14:50:10.114Z,52.39
2022-12-01T14:53:19.043Z,52.10
2022-12-01T14:56:23.212Z,52.93
2022-12-01T14:59:26.933Z,52.74
2022-12-01T15:02:29.482Z,52.53
2022-12-01T15:05:32.644Z,53.30
2022-12-01T15:08:49.248Z,52.35
2022-12-01T15:12:03.662Z,52.30
2022-12-01T15:15:17.834Z,52.77
2022-12-01T15:18:32.363Z,53.44
2022-12-01T15:21:34.880Z,53.39
2022-12-01T15:24:37.098Z,53.53
2022-12-01T15:27:39.573Z,54.49
2022-12-01T15:30:43.838Z,54.21
2022-12-01T15:33:51.713Z,54.90
2022-12-01T15:36:54.490Z,55.79
2022-12-01T15:43:27.892Z,55.43
2022-12-01T15:46:32.814Z,55.57
2022-12-01T15:49:40.440Z,55.94
2022-12-01T15:52:44.143Z,55.10
2022-12-01T15:55:48.240Z,56.51
2022-12-01T15:58:51.991Z,56.08
2022-12-01T16:01:54.931Z,56.74
2022-12-01T16:05:18.389Z,57.14
2022-12-01T16:08:23.781Z,57.65
2022-12-01T16:11:26.273Z,57.46
2022-12-01T16:14:29.031Z,57.76
2022-12-01T16:17:47.980Z,56.89
2022-12-01T16:20:50.356Z,56.62
2022-12-01T16:24:04.120Z,57.91
2022-12-01T16:27:15.743Z,57.46
2022-12-01T16:30:23.901Z,57.35
2022-12-01T16:33:27.611Z,57.52
2022-12-01T16:36:30.026Z,57.03
2022-12-01T16:39:32.348Z,58.24
2022-12-01T16:42:34.741Z,58.98
2022-12-01T16:45:37.100Z,57.80
2022-12-01T16:48:39.602Z,58.06
2022-12-01T16:51:55.394Z,59.06
2022-12-01T16:54:58.596Z,59.28
2022-12-01T16:58:00.995Z,58.84
2022-12-01T17:01:05.425Z,59.42
2022-12-01T17:04:08.057Z,59.56
2022-12-01T17:07:10.365Z,59.87
2022-12-01T17:10:12.940Z,58.87
2022-12-01T17:13:15.398Z,59.31
2022-12-01T17:16:18.853Z,59.87
2022-12-01T17:19:21.390Z,59.59
2022-12-01T17:22:23.844Z,59.23
2022-12-01T17:25:26.132Z,60.12
2022-12-01T17:28:28.529Z,60.27
2022-12-01T17:31:31.099Z,59.75
2022-12-01T17:34:33.407Z,59.67
2022-12-01T17:37:37.074Z,59.69
2022-12-01T17:40:39.433Z,60.06
2022-12-01T17:43:42.195Z,59.92
2022-12-01T17:46:44.645Z,60.13
2022-12-01T17:49:46.960Z,60.33
2022-12-01T17:52:49.399Z,60.24
2022-12-01T17:55:51.771Z,61.11
2022-12-01T17:58:54.108Z,60.55
2022-12-01T18:01:56.421Z,61.09
2022-12-01T18:04:58.836Z,60.16
2022-12-01T18:08:01.312Z,60.68
2022-12-01T18:11:10.006Z,60.69
2022-12-01T18:14:12.426Z,60.69
2022-12-01T18:17:14.730Z,61.41
2022-12-01T18:20:17.149Z,60.92
2022-12-01T18:23:19.533Z,60.82
2022-12-01T18:26:22.880Z,60.68
2022-12-01T18:29:28.911Z,60.76
2022-12-01T18:32:31.480Z,61.08
2022-12-01T18:35:33.744Z,60.77
2022-12-01T18:38:36.098Z,60.79
2022-12-01T18:41:38.973Z,61.95
2022-12-01T18:44:42.433Z,61.98
2022-12-01T18:47:45.638Z,62.01
2022-12-01T18:50:48.676Z,62.64
2022-12-01T18:53:57.613Z,62.24
2022-12-01T18:57:00.043Z,62.87
2022-12-01T19:00:04.972Z,63.20
2022-12-01T19:03:07.512Z,63.80
2022-12-01T19:06:12.623Z,63.22
2022-12-01T19:09:16.211Z,63.14
2022-12-01T19:12:19.243Z,63.23
2022-12-01T19:15:22.743Z,62.60
2022-12-01T19:18:25.268Z,62.30
2022-12-01T19:21:28.370Z,62.54
2022-12-01T19:24:30.701Z,63.04
2022-12-01T19:27:32.966Z,62.84
2022-12-01T19:30:35.772Z,62.37
2022-12-01T19:33:39.076Z,62.83
2022-12-01T19:36:41.451Z,63.20
2022-12-01T19:39:43.798Z,62.93
2022-12-01T19:42:46.132Z,62.25
2022-12-01T19:45:48.427Z,62.09
2022-12-01T19:48:56.297Z,62.42
2022-12-01T19:51:58.604Z,62.33
2022-12-01T19:55:01.502Z,62.46
2022-12-01T19:58:04.542Z,62.20
2022-12-01T20:01:09.557Z,61.89
2022-12-01T20:04:11.985Z,61.87
2022-12-01T20:07:14.241Z,62.13
2022-12-01T20:10:20.404Z,62.52
2022-12-01T20:13:22.664Z,62.22
2022-12-01T20:16:26.702Z,61.79
2022-12-01T20:19:29.176Z,62.40
2022-12-01T20:22:32.834Z,62.83
2022-12-01T20:25:35.149Z,62.55
2022-12-01T20:28:38.364Z,63.15
2022-12-01T20:31:41.868Z,62.45
2022-12-01T20:34:44.474Z,63.45
2022-12-01T20:37:46.756Z,63.43
2022-12-01T20:40:52.683Z,62.98
2022-12-01T20:43:54.944Z,62.92
2022-12-01T20:46:57.816Z,63.51
2022-12-01T20:50:04.551Z,64.14
2022-12-01T20:53:06.911Z,64.25
2022-12-01T20:56:11.449Z,64.46
2022-12-01T20:59:13.963Z,63.99
2022-12-01T21:02:16.276Z,64.04
2022-12-01T21:05:18.623Z,65.54
2022-12-01T21:08:20.927Z,64.44
2022-12-01T21:11:49.616Z,64.22
2022-12-01T21:15:21.432Z,64.61
2022-12-01T21:18:27.030Z,64.20
2022-12-01T21:21:39.977Z,65.14
2022-12-01T21:24:44.042Z,65.10
2022-12-01T21:27:49.906Z,64.60
2022-12-01T21:31:12.745Z,64.55
2022-12-01T21:34:24.279Z,64.95
2022-12-01T21:37:28.388Z,65.31
2022-12-01T21:40:30.866Z,64.96
2022-12-01T21:43:38.408Z,66.13
2022-12-01T21:46:42.464Z,66.52
2022-12-01T21:49:45.676Z,66.21
2022-12-01T21:52:48.356Z,64.87
2022-12-01T21:55:50.789Z,65.71
2022-12-01T21:58:57.496Z,65.04
2022-12-01T22:02:00.903Z,65.25
2022-12-01T22:05:34.702Z,66.14
2022-12-01T22:08:38.816Z,65.91
2022-12-01T22:11:42.673Z,65.84
2022-12-01T22:14:44.927Z,66.44
2022-12-01T22:17:47.205Z,66.71
2022-12-01T22:20:49.552Z,66.46
2022-12-01T22:24:01.652Z,66.34
2022-12-01T22:27:11.856Z,66.65
2022-12-01T22:30:20.853Z,66.11
2022-12-01T22:33:24.152Z,65.92
2022-12-01T22:36:29.208Z,66.66
2022-12-01T22:39:35.792Z,66.39
2022-12-01T22:42:38.076Z,66.75
2022-12-01T22:45:40.526Z,66.35
2022-12-01T22:48:49.361Z,66.67
2022-12-01T22:51:59.941Z,66.26
2022-12-01T22:55:02.232Z,65.84
2022-12-01T22:58:25.350Z,65.03
2022-12-01T23:01:33.004Z,64.88
2022-12-01T23:04:40.803Z,64.35
2022-12-01T23:07:45.898Z,64.12
2022-12-01T23:10:48.276Z,64.59
2022-12-01T23:13:50.533Z,64.55
2022-12-01T23:17:00.854Z,64.39
2022-12-01T23:20:24.949Z,64.81
2022-12-01T23:23:36.329Z,64.04
2022-12-01T23:26:38.635Z,64.43
2022-12-01T23:29:40.899Z,63.47
2022-12-01T23:32:44.375Z,64.02
2022-12-01T23:36:12.600Z,65.45
2022-12-01T23:39:16.273Z,64.29
2022-12-01T23:42:18.619Z,64.28
2022-12-01T23:45:23.613Z,63.68
2022-12-01T23:48:30.808Z,63.71
2022-12-01T23:51:36.044Z,63.18
2022-12-01T23:54:38.903Z,64.33
2022-12-01T23:57:41.198Z,64.46
